Página principal
METAR-TAF:

METAR-TAF

Aeroportos :

Aeroporto de Paris-Charles de Gaulle

Paris-Charles De Gaulle, França

latitude: 49-01N, longitude: 002-32E, altura: 118 m

Observação actual do tempo

O boletim foi feito há 36 minutos, às 10:30 UTC
Vento 11 kt de este
Temperatura 11°C
Humidade 62%
Pressão 1034 hPa
Visibilidade 10 km ou mais
sem nuvens abaixo de 1500 metros e sem cumulonimbus

METAR: LFPG 231030Z 10011KT CAVOK 11/04 Q1034 NOSIG

Hora: 12:06 (11:06 UTC)

Previsão

O boletim foi feito há 6 horas e 6 minutos, às 05:00 UTC
Previsão válida de 23 às 06 UTC a 24 às 12 UTC
Vento 8 kt de es-nordeste
Visibilidade 10 km ou mais
sem nuvens abaixo de 1500 metros e sem cumulonimbus
Probabilidade 30%
de 24 às 00 UTC a 24 às 03 UTC
Visibilidade: 4000 m
neblina

TAF: LFPG 230500Z 2306/2412 07008KT CAVOK TX14/2315Z TN02/2406Z PROB30 2400/2403 4000 BR

Observações e previsões do tempo de mais de 4000 aeroportos (mensagens METAR e TAF).

As estações disponíveis são os pontos amarelos e vermelhos sobre o mapa.

Mova o rato sobre o mapa para ver o nome da estação.

Depois clique no ponto para visualizar as observações e previsões meteorológicas.

Para alterar o mapa : clique nos botões verdes com uma cruz preta para aumentar o zoom; no botão verde com uma pitada de zoom; ou nas setas verdes para mapas adjacentes.


METAR-TAF: